Watarrka Kings Canyon, Australia
Current Conditions -  °F | °C
As of 9:00 AM on Saturday 29 Nov 2014 (Local Time) from YAYE Reporting Station
Clear Clear  
Wind Chill: 95°   Ceiling: Unl
Heat Index: 95°   Visibility: 6mi
Dew Point: 25°   Wind: 13mph
Humidity: 8%   Direction: 30°NNE
Pressure: 29.83"   Gusts: NA
Location:  24.28°S, 131.53°E
Report Text: YAYE 290000Z AUTO 03011KT 9999 // NCD 35/M04 Q1010
Loading
Personal Weather Stations






























Interactive Weather Map New forecast layout! Learn more

10-Day Weather Forecast

Advertisements
Track Severe Weather on mobile